createdAt,value
2022-08-09T00:01:54.876Z,0.00
2022-08-09T00:07:18.266Z,0.00
2022-08-09T00:12:51.595Z,0.00
2022-08-09T00:18:21.905Z,0.00
2022-08-09T00:23:57.861Z,0.00
2022-08-09T00:29:39.344Z,0.00
2022-08-09T00:34:58.599Z,1.00
2022-08-09T00:40:30.142Z,1.00
2022-08-09T00:46:01.038Z,0.00
2022-08-09T00:51:33.949Z,1.00
2022-08-09T00:57:10.690Z,0.00
2022-08-09T03:04:16.770Z,0.00
2022-08-09T03:09:16.071Z,1.00
2022-08-09T03:14:48.159Z,2.00
2022-08-09T03:20:43.388Z,6.00
2022-08-09T03:26:14.965Z,14.00
2022-08-09T03:31:59.502Z,41.00
2022-08-09T03:37:54.586Z,99.00
2022-08-09T03:42:50.364Z,202.00
2022-08-09T03:48:30.609Z,359.00
2022-08-09T03:53:54.048Z,570.00
2022-08-09T03:59:27.246Z,860.00
2022-08-09T04:04:58.432Z,1332.00
2022-08-09T04:10:30.510Z,2047.00
2022-08-09T04:16:20.256Z,8402.00
2022-08-09T04:21:38.470Z,17608.00
2022-08-09T04:27:05.225Z,23806.00
2022-08-09T04:32:38.562Z,29634.00
2022-08-09T04:38:09.096Z,35748.00
2022-08-09T04:43:53.650Z,37889.00
2022-08-09T04:49:14.559Z,37889.00
2022-08-09T04:54:45.018Z,32356.00
2022-08-09T05:00:17.244Z,7758.00
2022-08-09T05:05:52.070Z,7421.00
2022-08-09T05:11:21.214Z,7393.00
2022-08-09T05:16:59.564Z,7431.00
2022-08-09T05:22:33.227Z,7674.00
2022-08-09T05:27:57.859Z,7962.00
2022-08-09T05:33:33.164Z,11187.00
2022-08-09T05:39:01.566Z,37889.00
2022-08-09T05:44:34.889Z,37889.00
2022-08-09T05:50:25.804Z,37889.00
2022-08-09T05:55:36.889Z,37889.00
2022-08-09T06:01:08.807Z,37889.00
2022-08-09T06:06:45.141Z,37889.00
2022-08-09T06:12:12.691Z,37889.00
2022-08-09T06:17:44.573Z,37889.00
2022-08-09T06:23:16.395Z,37889.00
2022-08-09T06:28:47.913Z,37889.00
2022-08-09T06:34:19.981Z,37889.00
2022-08-09T06:39:59.848Z,37889.00
2022-08-09T06:46:06.940Z,37889.00
2022-08-09T06:50:55.103Z,37889.00
2022-08-09T06:56:31.154Z,37889.00
2022-08-09T07:02:03.589Z,37889.00
2022-08-09T07:08:00.551Z,37889.00
2022-08-09T07:13:18.563Z,37889.00
2022-08-09T07:18:34.203Z,37889.00
2022-08-09T07:24:06.277Z,37889.00
2022-08-09T07:29:42.888Z,37889.00
2022-08-09T07:35:10.719Z,37889.00
2022-08-09T07:41:08.331Z,37889.00
2022-08-09T07:46:13.248Z,37889.00
2022-08-09T07:52:06.122Z,37889.00
2022-08-09T07:57:17.435Z,37889.00
2022-08-09T08:02:49.248Z,37889.00
2022-08-09T08:09:01.718Z,37889.00
2022-08-09T08:13:56.891Z,37889.00
2022-08-09T08:19:29.221Z,37889.00
2022-08-09T08:30:26.840Z,37889.00
2022-08-09T08:36:00.435Z,37889.00
2022-08-09T08:41:42.026Z,37889.00
2022-08-09T08:47:04.485Z,37889.00
2022-08-09T08:58:05.483Z,37889.00
2022-08-09T09:03:37.840Z,37889.00
2022-08-09T09:09:21.251Z,37889.00
2022-08-09T09:14:41.043Z,37889.00
2022-08-09T09:20:15.545Z,37889.00
2022-08-09T09:26:01.380Z,16358.00
2022-08-09T09:31:17.489Z,15242.00
2022-08-09T09:36:53.253Z,14863.00
2022-08-09T09:42:21.347Z,14448.00
2022-08-09T09:47:56.366Z,14474.00
2022-08-09T09:53:43.720Z,14184.00
2022-08-09T09:58:56.222Z,13993.00
2022-08-09T10:04:30.993Z,14097.00
2022-08-09T10:10:00.112Z,13703.00
2022-08-09T10:16:08.674Z,13744.00
2022-08-09T10:21:03.810Z,13682.00
2022-08-09T10:26:35.615Z,13317.00
2022-08-09T10:37:39.516Z,12804.00
2022-08-09T10:43:13.022Z,12631.00
2022-08-09T10:48:43.942Z,12630.00
2022-08-09T10:54:15.738Z,12361.00
2022-08-09T10:59:57.423Z,12388.00
2022-08-09T11:05:24.980Z,12357.00
2022-08-09T11:10:54.684Z,12347.00
2022-08-09T11:16:35.040Z,12129.00
2022-08-09T11:22:05.453Z,12260.00
2022-08-09T11:28:05.224Z,12166.00
2022-08-09T11:32:59.658Z,12079.00
2022-08-09T11:38:33.293Z,12154.00
2022-08-09T11:44:03.197Z,12093.00
2022-08-09T11:49:42.566Z,12062.00
2022-08-09T11:55:06.876Z,12108.00
2022-08-09T12:00:38.663Z,12284.00
2022-08-09T12:06:10.721Z,12032.00
2022-08-09T12:12:02.694Z,12042.00
2022-08-09T12:17:33.893Z,11832.00
2022-08-09T12:22:46.337Z,11795.00
2022-08-09T12:29:11.816Z,11784.00
2022-08-09T12:33:58.688Z,11812.00
2022-08-09T12:39:21.975Z,11847.00
2022-08-09T12:44:54.734Z,11652.00
2022-08-09T12:50:26.053Z,11752.00
2022-08-09T12:56:15.326Z,11500.00
2022-08-09T13:01:29.820Z,11558.00
2022-08-09T13:07:01.995Z,11457.00
2022-08-09T13:12:40.047Z,11466.00
2022-08-09T13:18:09.800Z,11489.00
2022-08-09T13:24:16.696Z,11483.00
2022-08-09T13:29:09.753Z,11495.00
2022-08-09T13:34:42.004Z,11325.00
2022-08-09T13:41:56.538Z,11479.00
2022-08-09T13:46:42.194Z,11410.00
2022-08-09T13:51:18.127Z,11338.00
2022-08-09T13:56:50.487Z,11389.00
2022-08-09T14:02:35.374Z,11284.00
2022-08-09T14:07:55.023Z,11276.00
2022-08-09T14:14:15.662Z,11229.00
2022-08-09T14:18:59.683Z,11171.00
2022-08-09T14:24:32.426Z,11244.00
2022-08-09T14:30:33.989Z,11360.00
2022-08-09T14:35:52.327Z,11186.00
2022-08-09T14:41:34.580Z,11212.00
2022-08-09T14:47:04.714Z,11163.00
2022-08-09T14:52:11.463Z,11197.00
2022-08-09T14:57:43.863Z,11101.00
2022-08-09T15:03:16.651Z,11017.00
2022-08-09T15:08:56.386Z,10988.00
2022-08-09T15:14:19.604Z,10817.00
2022-08-09T15:19:59.673Z,10757.00
2022-08-09T15:25:38.893Z,10668.00
2022-08-09T15:31:08.724Z,10570.00
2022-08-09T15:36:29.413Z,10416.00
2022-08-09T15:41:59.829Z,10311.00
2022-08-09T15:47:47.211Z,10062.00
2022-08-09T15:58:35.572Z,9683.00
2022-08-09T16:04:13.596Z,9508.00
2022-08-09T16:10:02.291Z,9260.00
2022-08-09T16:16:10.256Z,9062.00
2022-08-09T16:20:43.281Z,8721.00
2022-08-09T16:26:19.941Z,8511.00
2022-08-09T16:32:18.513Z,8266.00
2022-08-09T16:34:02.510Z,8240.00
2022-08-09T16:39:47.956Z,7863.00
2022-08-09T16:45:03.862Z,7471.00
2022-08-09T16:50:38.722Z,7307.00
2022-08-09T16:56:09.861Z,7106.00
2022-08-09T17:01:39.443Z,6853.00
2022-08-09T17:08:46.352Z,6553.00
2022-08-09T17:12:43.607Z,6295.00
2022-08-09T17:18:15.496Z,5996.00
2022-08-09T17:24:28.222Z,5633.00
2022-08-09T17:29:20.237Z,5272.00
2022-08-09T17:35:03.874Z,4889.00
2022-08-09T17:40:26.211Z,4537.00
2022-08-09T17:46:03.417Z,4219.00
2022-08-09T17:51:25.778Z,3838.00
2022-08-09T17:56:57.682Z,3458.00
2022-08-09T18:02:33.537Z,3086.00
2022-08-09T18:08:01.382Z,2693.00
2022-08-09T18:13:40.037Z,2320.00
2022-08-09T18:20:57.988Z,1946.00
2022-08-09T18:24:36.148Z,1475.00
2022-08-09T18:30:40.885Z,1087.00
2022-08-09T18:35:59.496Z,765.00
2022-08-09T18:41:11.332Z,516.00
2022-08-09T18:46:49.541Z,315.00
2022-08-09T18:52:16.058Z,170.00
2022-08-09T18:57:46.581Z,81.00
2022-08-09T19:03:18.674Z,35.00
2022-08-09T19:08:55.430Z,13.00
2022-08-09T19:14:24.491Z,5.00
2022-08-09T19:20:00.597Z,2.00
2022-08-09T19:25:41.872Z,1.00
2022-08-09T19:30:56.627Z,3.00
2022-08-09T19:36:32.785Z,3.00
2022-08-09T19:42:00.281Z,3.00
2022-08-09T19:47:31.861Z,3.00
2022-08-09T19:53:04.165Z,3.00
2022-08-09T19:58:35.359Z,3.00
2022-08-09T20:04:18.958Z,3.00
2022-08-09T20:09:44.551Z,3.00
2022-08-09T20:16:34.223Z,3.00
2022-08-09T20:20:43.685Z,2.00
2022-08-09T20:26:15.612Z,3.00
2022-08-09T20:32:28.901Z,2.00
2022-08-09T20:37:21.440Z,3.00
2022-08-09T20:42:53.256Z,3.00
2022-08-09T20:48:22.219Z,4.00
2022-08-09T20:53:54.053Z,4.00
2022-08-09T21:00:22.266Z,3.00
2022-08-09T21:05:57.136Z,2.00
2022-08-09T21:10:30.502Z,3.00
2022-08-09T21:16:03.270Z,3.00
2022-08-09T21:21:53.121Z,2.00
2022-08-09T21:27:50.416Z,2.00
2022-08-09T21:32:38.702Z,3.00
2022-08-09T21:38:10.546Z,3.00
2022-08-09T21:43:58.101Z,3.00
2022-08-09T21:49:13.649Z,3.00
2022-08-09T21:54:46.036Z,2.00
2022-08-09T22:00:17.292Z,1.00
2022-08-09T22:05:51.219Z,0.00
2022-08-09T22:12:05.371Z,0.00
2022-08-09T22:16:52.635Z,0.00
2022-08-09T22:22:25.499Z,1.00
2022-08-09T22:27:57.328Z,0.00
2022-08-09T22:33:37.611Z,0.00
2022-08-09T22:39:01.426Z,0.00
2022-08-09T22:50:04.775Z,0.00
2022-08-09T22:56:29.431Z,1.00
2022-08-09T23:06:40.160Z,0.00
2022-08-09T23:12:11.970Z,1.00
2022-08-09T23:17:44.019Z,1.00
2022-08-09T23:23:18.314Z,0.00
2022-08-09T23:28:50.918Z,1.00
2022-08-09T23:34:22.564Z,0.00
2022-08-09T23:39:54.347Z,1.00
2022-08-09T23:45:37.984Z,1.00
2022-08-09T23:50:57.973Z,0.00
2022-08-09T23:56:52.776Z,1.00
